sensor_id;sensor_type;location;lat;lon;timestamp;P1;durP1;ratioP1;P2;durP2;ratioP2
49556;SDS011;35462;45.048;7.666;2023-02-28T00:08:22;5.43;;;4.10;;
49556;SDS011;35462;45.048;7.666;2023-02-28T00:23:37;6.03;;;4.20;;
49556;SDS011;35462;45.048;7.666;2023-02-28T00:38:53;5.88;;;3.92;;
49556;SDS011;35462;45.048;7.666;2023-02-28T00:54:09;6.25;;;4.13;;
49556;SDS011;35462;45.048;7.666;2023-02-28T01:09:25;5.75;;;3.97;;
49556;SDS011;35462;45.048;7.666;2023-02-28T01:24:41;6.80;;;4.75;;
49556;SDS011;35462;45.048;7.666;2023-02-28T01:39:57;10.25;;;5.78;;
49556;SDS011;35462;45.048;7.666;2023-02-28T01:55:13;5.97;;;4.20;;
49556;SDS011;35462;45.048;7.666;2023-02-28T02:25:54;8.70;;;5.70;;
49556;SDS011;35462;45.048;7.666;2023-02-28T02:57:07;11.02;;;7.15;;
49556;SDS011;35462;45.048;7.666;2023-02-28T03:12:32;8.38;;;6.22;;
49556;SDS011;35462;45.048;7.666;2023-02-28T03:28:05;8.00;;;6.20;;
49556;SDS011;35462;45.048;7.666;2023-02-28T03:43:32;6.63;;;5.93;;
49556;SDS011;35462;45.048;7.666;2023-02-28T03:58:54;8.60;;;6.03;;
49556;SDS011;35462;45.048;7.666;2023-02-28T04:14:14;9.02;;;6.07;;
49556;SDS011;35462;45.048;7.666;2023-02-28T04:29:31;14.93;;;10.10;;
49556;SDS011;35462;45.048;7.666;2023-02-28T04:44:47;8.57;;;6.30;;
49556;SDS011;35462;45.048;7.666;2023-02-28T05:00:05;11.00;;;7.70;;
49556;SDS011;35462;45.048;7.666;2023-02-28T05:15:22;11.70;;;8.73;;
49556;SDS011;35462;45.048;7.666;2023-02-28T05:30:38;12.18;;;8.93;;
49556;SDS011;35462;45.048;7.666;2023-02-28T05:45:54;16.05;;;9.88;;
49556;SDS011;35462;45.048;7.666;2023-02-28T06:16:49;10.57;;;5.75;;
49556;SDS011;35462;45.048;7.666;2023-02-28T06:32:05;11.90;;;6.32;;
49556;SDS011;35462;45.048;7.666;2023-02-28T06:47:21;10.65;;;6.35;;
49556;SDS011;35462;45.048;7.666;2023-02-28T07:02:37;10.05;;;6.45;;
49556;SDS011;35462;45.048;7.666;2023-02-28T07:17:53;9.07;;;6.43;;
49556;SDS011;35462;45.048;7.666;2023-02-28T07:33:09;9.40;;;7.07;;
49556;SDS011;35462;45.048;7.666;2023-02-28T07:48:25;13.10;;;7.45;;
49556;SDS011;35462;45.048;7.666;2023-02-28T08:03:40;11.63;;;7.97;;
49556;SDS011;35462;45.048;7.666;2023-02-28T08:18:58;13.55;;;7.30;;
49556;SDS011;35462;45.048;7.666;2023-02-28T08:34:14;10.82;;;5.80;;
49556;SDS011;35462;45.048;7.666;2023-02-28T08:49:31;10.80;;;6.53;;
49556;SDS011;35462;45.048;7.666;2023-02-28T09:04:47;8.77;;;6.53;;
49556;SDS011;35462;45.048;7.666;2023-02-28T09:20:04;9.02;;;5.75;;
49556;SDS011;35462;45.048;7.666;2023-02-28T09:35:21;9.82;;;6.50;;
49556;SDS011;35462;45.048;7.666;2023-02-28T09:50:38;9.65;;;6.15;;
49556;SDS011;35462;45.048;7.666;2023-02-28T10:36:50;15.98;;;9.25;;
49556;SDS011;35462;45.048;7.666;2023-02-28T10:52:08;12.60;;;8.70;;
49556;SDS011;35462;45.048;7.666;2023-02-28T11:07:25;13.27;;;9.30;;
49556;SDS011;35462;45.048;7.666;2023-02-28T11:22:43;13.60;;;8.43;;
49556;SDS011;35462;45.048;7.666;2023-02-28T11:38:01;18.35;;;10.63;;
49556;SDS011;35462;45.048;7.666;2023-02-28T12:39:45;16.27;;;10.43;;
49556;SDS011;35462;45.048;7.666;2023-02-28T13:10:38;18.58;;;10.50;;
49556;SDS011;35462;45.048;7.666;2023-02-28T13:25:57;14.68;;;9.15;;
49556;SDS011;35462;45.048;7.666;2023-02-28T13:56:48;12.30;;;8.35;;
49556;SDS011;35462;45.048;7.666;2023-02-28T14:28:14;14.07;;;8.65;;
49556;SDS011;35462;45.048;7.666;2023-02-28T14:43:52;12.25;;;9.10;;
49556;SDS011;35462;45.048;7.666;2023-02-28T15:14:44;10.35;;;7.55;;
49556;SDS011;35462;45.048;7.666;2023-02-28T15:30:04;9.77;;;7.03;;
49556;SDS011;35462;45.048;7.666;2023-02-28T15:45:32;12.23;;;7.57;;
49556;SDS011;35462;45.048;7.666;2023-02-28T16:16:31;14.75;;;9.23;;
49556;SDS011;35462;45.048;7.666;2023-02-28T16:31:48;13.30;;;8.73;;
49556;SDS011;35462;45.048;7.666;2023-02-28T16:47:04;13.55;;;9.45;;
49556;SDS011;35462;45.048;7.666;2023-02-28T17:02:21;12.75;;;8.32;;
49556;SDS011;35462;45.048;7.666;2023-02-28T17:17:37;14.38;;;7.78;;
49556;SDS011;35462;45.048;7.666;2023-02-28T17:32:54;12.63;;;7.97;;
49556;SDS011;35462;45.048;7.666;2023-02-28T17:48:11;13.68;;;9.32;;
49556;SDS011;35462;45.048;7.666;2023-02-28T18:03:27;13.23;;;8.65;;
49556;SDS011;35462;45.048;7.666;2023-02-28T18:18:47;13.88;;;9.98;;
49556;SDS011;35462;45.048;7.666;2023-02-28T18:34:03;16.70;;;9.57;;
49556;SDS011;35462;45.048;7.666;2023-02-28T18:49:19;15.00;;;10.68;;
49556;SDS011;35462;45.048;7.666;2023-02-28T19:04:35;16.85;;;9.95;;
49556;SDS011;35462;45.048;7.666;2023-02-28T19:19:51;18.23;;;10.80;;
49556;SDS011;35462;45.048;7.666;2023-02-28T19:35:07;16.40;;;11.75;;
49556;SDS011;35462;45.048;7.666;2023-02-28T19:50:23;16.63;;;11.23;;
49556;SDS011;35462;45.048;7.666;2023-02-28T20:05:39;18.83;;;11.55;;
49556;SDS011;35462;45.048;7.666;2023-02-28T20:20:54;20.52;;;11.63;;
49556;SDS011;35462;45.048;7.666;2023-02-28T20:36:11;16.45;;;11.63;;
49556;SDS011;35462;45.048;7.666;2023-02-28T20:51:29;18.92;;;12.93;;
49556;SDS011;35462;45.048;7.666;2023-02-28T21:06:47;22.57;;;14.00;;
49556;SDS011;35462;45.048;7.666;2023-02-28T21:22:06;17.47;;;12.37;;
49556;SDS011;35462;45.048;7.666;2023-02-28T21:37:25;22.23;;;13.82;;
49556;SDS011;35462;45.048;7.666;2023-02-28T21:52:42;18.05;;;12.80;;
49556;SDS011;35462;45.048;7.666;2023-02-28T22:08:00;20.05;;;13.27;;
49556;SDS011;35462;45.048;7.666;2023-02-28T22:23:16;17.60;;;12.10;;
49556;SDS011;35462;45.048;7.666;2023-02-28T22:38:34;21.60;;;12.18;;
49556;SDS011;35462;45.048;7.666;2023-02-28T22:54:00;17.10;;;12.75;;
49556;SDS011;35462;45.048;7.666;2023-02-28T23:09:16;24.45;;;13.45;;
49556;SDS011;35462;45.048;7.666;2023-02-28T23:24:38;19.80;;;13.93;;
49556;SDS011;35462;45.048;7.666;2023-02-28T23:39:54;18.17;;;13.48;;
49556;SDS011;35462;45.048;7.666;2023-02-28T23:55:17;21.63;;;14.77;;
